createdAt,value
2018-09-19T00:00:18.288Z,98611.00
2018-09-19T00:02:47.141Z,98600.25
2018-09-19T00:05:15.726Z,98610.28
2018-09-19T00:07:44.386Z,98602.77
2018-09-19T00:10:13.232Z,98608.58
2018-09-19T00:12:41.894Z,98609.27
2018-09-19T00:15:10.796Z,98602.03
2018-09-19T00:17:40.147Z,98605.25
2018-09-19T00:20:08.425Z,98607.17
2018-09-19T00:22:37.736Z,98609.67
2018-09-19T00:25:06.322Z,98620.48
2018-09-19T00:27:34.600Z,98621.09
2018-09-19T00:30:02.909Z,98627.27
2018-09-19T00:32:31.283Z,98619.95
2018-09-19T00:34:59.487Z,98614.00
2018-09-19T00:37:28.420Z,98624.39
2018-09-19T00:39:56.887Z,98615.55
2018-09-19T00:42:25.103Z,98620.86
2018-09-19T00:44:53.340Z,98618.23
2018-09-19T00:47:21.829Z,98619.81
2018-09-19T00:49:50.639Z,98622.42
2018-09-19T00:52:18.867Z,98616.36
2018-09-19T00:54:47.198Z,98617.55
2018-09-19T00:57:15.517Z,98614.85
2018-09-19T00:59:43.753Z,98608.39
2018-09-19T01:02:11.966Z,98608.98
2018-09-19T01:04:41.037Z,98609.27
2018-09-19T01:07:09.356Z,98611.80
2018-09-19T01:09:38.212Z,98615.99
2018-09-19T01:12:06.538Z,98616.56
2018-09-19T01:14:34.786Z,98617.22
2018-09-19T01:17:03.040Z,98620.17
2018-09-19T01:19:31.462Z,98620.30
2018-09-19T01:21:59.825Z,98619.79
2018-09-19T01:24:28.381Z,98616.80
2018-09-19T01:27:04.797Z,98619.66
2018-09-19T01:29:33.642Z,98621.92
2018-09-19T01:32:02.377Z,98622.02
2018-09-19T01:34:30.711Z,98621.48
2018-09-19T01:37:02.602Z,98628.83
2018-09-19T01:39:32.732Z,98631.91
2018-09-19T01:42:01.066Z,98630.09
2018-09-19T01:44:29.447Z,98634.34
2018-09-19T01:46:58.315Z,98635.52
2018-09-19T01:49:26.824Z,98635.13
2018-09-19T01:51:55.501Z,98639.30
2018-09-19T01:54:24.857Z,98636.98
2018-09-19T01:56:54.024Z,98633.05
2018-09-19T01:59:22.402Z,98631.53
2018-09-19T02:01:51.162Z,98637.67
2018-09-19T02:04:20.345Z,98639.77
2018-09-19T02:06:49.033Z,98642.90
2018-09-19T02:09:17.572Z,98639.81
2018-09-19T02:11:46.530Z,98642.91
2018-09-19T02:14:14.773Z,98646.02
2018-09-19T02:16:43.392Z,98646.61
2018-09-19T02:19:12.042Z,98644.18
2018-09-19T02:21:40.384Z,98646.92
2018-09-19T02:24:08.633Z,98652.28
2018-09-19T02:26:37.029Z,98654.44
2018-09-19T02:29:05.516Z,98654.59
2018-09-19T02:31:34.128Z,98663.31
2018-09-19T02:34:02.484Z,98653.85
2018-09-19T02:36:30.832Z,98651.06
2018-09-19T02:38:59.340Z,98651.94
2018-09-19T02:41:28.330Z,98647.09
2018-09-19T02:43:56.659Z,98647.88
2018-09-19T02:46:24.937Z,98653.48
2018-09-19T02:48:53.207Z,98657.52
2018-09-19T02:51:22.098Z,98656.33
2018-09-19T02:53:50.888Z,98658.69
2018-09-19T02:56:19.169Z,98659.80
2018-09-19T02:58:47.476Z,98664.00
2018-09-19T03:01:15.791Z,98668.20
2018-09-19T03:03:44.031Z,98664.23
2018-09-19T03:06:13.096Z,98663.51
2018-09-19T03:08:41.778Z,98668.47
2018-09-19T03:11:10.191Z,98677.22
2018-09-19T03:13:38.666Z,98675.58
2018-09-19T03:16:08.048Z,98679.35
2018-09-19T03:18:37.008Z,98673.67
2018-09-19T03:21:05.992Z,98677.57
2018-09-19T03:23:34.215Z,98680.08
2018-09-19T03:26:02.492Z,98681.44
2018-09-19T03:28:30.741Z,98680.08
2018-09-19T03:30:58.999Z,98675.35
2018-09-19T03:33:27.210Z,98678.91
2018-09-19T03:35:55.520Z,98676.20
2018-09-19T03:38:23.773Z,98682.28
2018-09-19T03:40:52.354Z,98685.80
2018-09-19T03:43:20.988Z,98689.34
2018-09-19T03:45:50.239Z,98691.95
2018-09-19T03:48:19.072Z,98690.10
2018-09-19T03:50:47.614Z,98685.38
2018-09-19T03:53:15.973Z,98685.81
2018-09-19T03:55:44.398Z,98687.36
2018-09-19T03:58:12.725Z,98691.77
2018-09-19T04:00:41.992Z,98688.74
2018-09-19T04:03:10.250Z,98686.58
2018-09-19T04:05:39.176Z,98683.00
2018-09-19T04:08:07.822Z,98692.77
2018-09-19T04:10:36.745Z,98688.28
2018-09-19T04:13:05.132Z,98687.58
2018-09-19T04:15:33.802Z,98691.75
2018-09-19T04:18:02.697Z,98685.20
2018-09-19T04:20:31.241Z,98693.05
2018-09-19T04:23:00.193Z,98697.10
2018-09-19T04:25:29.368Z,98701.94
2018-09-19T04:27:57.663Z,98703.71
2018-09-19T04:30:25.905Z,98707.05
2018-09-19T04:32:54.398Z,98709.66
2018-09-19T04:35:23.909Z,98705.95
2018-09-19T04:37:52.162Z,98705.92
2018-09-19T04:40:20.442Z,98707.80
2018-09-19T04:42:49.267Z,98703.94
2018-09-19T04:45:17.699Z,98707.36
2018-09-19T04:47:45.850Z,98714.69
2018-09-19T04:50:15.087Z,98709.88
2018-09-19T04:52:43.588Z,98716.02
2018-09-19T04:55:12.148Z,98715.34
2018-09-19T04:57:41.091Z,98715.90
2018-09-19T05:00:09.901Z,98720.83
2018-09-19T05:02:38.345Z,98719.91
2018-09-19T05:05:07.105Z,98719.38
2018-09-19T05:07:35.327Z,98723.06
2018-09-19T05:10:03.681Z,98723.14
2018-09-19T05:12:32.078Z,98728.33
2018-09-19T05:15:00.364Z,98729.36
2018-09-19T05:17:28.612Z,98725.19
2018-09-19T05:19:57.101Z,98728.06
2018-09-19T05:22:26.489Z,98732.62
2018-09-19T05:24:54.757Z,98733.11
2018-09-19T05:27:23.341Z,98740.16
2018-09-19T05:29:51.769Z,98747.35
2018-09-19T05:32:20.238Z,98752.98
2018-09-19T05:34:48.837Z,98755.20
2018-09-19T05:37:18.396Z,98753.55
2018-09-19T05:39:47.235Z,98752.06
2018-09-19T05:42:16.103Z,98752.81
2018-09-19T05:44:44.520Z,98745.80
2018-09-19T05:47:12.856Z,98750.37
2018-09-19T05:49:41.307Z,98747.30
2018-09-19T05:52:09.551Z,98753.95
2018-09-19T05:54:37.893Z,98752.30
2018-09-19T05:57:06.412Z,98750.23
2018-09-19T05:59:34.764Z,98752.97
2018-09-19T06:02:04.354Z,98751.30
2018-09-19T06:04:32.636Z,98752.13
2018-09-19T06:07:01.016Z,98754.30
2018-09-19T06:09:29.266Z,98761.53
2018-09-19T06:11:58.180Z,98759.06
2018-09-19T06:14:26.664Z,98759.09
2018-09-19T06:16:54.941Z,98761.88
2018-09-19T06:19:23.903Z,98762.22
2018-09-19T06:21:52.418Z,98758.89
2018-09-19T06:24:21.108Z,98767.78
2018-09-19T06:26:49.342Z,98761.05
2018-09-19T06:29:18.014Z,98760.53
2018-09-19T06:31:46.284Z,98765.62
2018-09-19T06:34:14.802Z,98769.64
2018-09-19T06:36:43.084Z,98772.48
2018-09-19T06:39:11.602Z,98772.98
2018-09-19T06:41:39.912Z,98770.88
2018-09-19T06:44:09.108Z,98772.67
2018-09-19T06:46:37.605Z,98769.09
2018-09-19T06:49:06.561Z,98776.41
2018-09-19T06:51:34.827Z,98776.73
2018-09-19T06:54:03.716Z,98779.45
2018-09-19T06:56:32.177Z,98784.66
2018-09-19T06:59:00.375Z,98786.44
2018-09-19T07:01:28.751Z,98789.45
2018-09-19T07:03:57.033Z,98790.16
2018-09-19T07:06:25.286Z,98793.59
2018-09-19T07:08:53.547Z,98803.47
2018-09-19T07:11:22.668Z,98800.88
2018-09-19T07:13:51.269Z,98801.94
2018-09-19T07:16:20.321Z,98805.41
2018-09-19T07:18:48.672Z,98810.31
2018-09-19T07:21:17.204Z,98814.60
2018-09-19T07:23:45.431Z,98817.56
2018-09-19T07:26:13.843Z,98811.36
2018-09-19T07:28:42.347Z,98819.03
2018-09-19T07:31:10.591Z,98817.30
2018-09-19T07:33:39.356Z,98820.92
2018-09-19T07:36:07.602Z,98822.39
2018-09-19T07:38:36.173Z,98826.99
2018-09-19T07:41:04.596Z,98823.25
2018-09-19T07:43:34.108Z,98830.11
2018-09-19T07:46:02.304Z,98831.26
2018-09-19T07:48:30.626Z,98835.04
2018-09-19T07:50:59.273Z,98841.41
2018-09-19T07:53:35.344Z,98837.81
2018-09-19T07:56:04.785Z,98845.86
2018-09-19T07:58:34.475Z,98834.37
2018-09-19T08:01:02.736Z,98834.77
2018-09-19T08:03:32.160Z,98838.35
2018-09-19T08:06:00.862Z,98842.97
2018-09-19T08:08:29.688Z,98845.86
2018-09-19T08:10:58.043Z,98845.73
2018-09-19T08:13:27.489Z,98841.96
2018-09-19T08:15:56.512Z,98839.60
2018-09-19T08:18:24.790Z,98835.47
2018-09-19T08:20:53.417Z,98829.28
2018-09-19T08:23:21.688Z,98823.94
2018-09-19T08:25:50.626Z,98824.77
2018-09-19T08:28:19.112Z,98827.84
2018-09-19T08:30:47.706Z,98827.27
2018-09-19T08:33:16.050Z,98836.21
2018-09-19T08:35:44.587Z,98837.15
2018-09-19T08:38:13.244Z,98839.89
2018-09-19T08:40:41.731Z,98841.49
2018-09-19T08:43:10.490Z,98838.17
2018-09-19T08:45:39.766Z,98845.40
2018-09-19T08:48:08.061Z,98848.63
2018-09-19T08:50:37.216Z,98841.33
2018-09-19T08:53:06.326Z,98841.88
2018-09-19T08:55:34.544Z,98835.84
2018-09-19T08:58:02.918Z,98840.25
2018-09-19T09:00:31.231Z,98835.07
2018-09-19T09:02:59.604Z,98838.66
2018-09-19T09:05:28.644Z,98843.08
2018-09-19T09:07:57.125Z,98837.32
2018-09-19T09:10:26.525Z,98848.42
2018-09-19T09:12:56.706Z,98846.11
2018-09-19T09:15:25.942Z,98839.66
2018-09-19T09:17:55.396Z,98842.63
2018-09-19T09:20:24.210Z,98841.55
2018-09-19T09:22:54.255Z,98833.44
2018-09-19T09:25:22.480Z,98831.80
2018-09-19T09:27:50.818Z,98829.84
2018-09-19T09:30:19.229Z,98824.78
2018-09-19T09:32:47.997Z,98822.32
2018-09-19T09:35:16.273Z,98822.82
2018-09-19T09:37:44.682Z,98827.39
2018-09-19T09:40:13.171Z,98819.35
2018-09-19T09:42:42.950Z,98824.86
2018-09-19T09:45:11.204Z,98821.56
2018-09-19T09:47:39.880Z,98821.06
2018-09-19T09:50:10.103Z,98822.30
2018-09-19T09:52:38.664Z,98819.06
2018-09-19T09:55:06.956Z,98816.22
2018-09-19T09:57:35.198Z,98819.76
2018-09-19T10:00:03.560Z,98819.33
2018-09-19T10:02:32.624Z,98822.09
2018-09-19T10:05:00.854Z,98822.72
2018-09-19T10:07:29.095Z,98820.44
2018-09-19T10:09:58.355Z,98817.44
2018-09-19T10:12:26.593Z,98810.65
2018-09-19T10:14:55.466Z,98810.24
2018-09-19T10:17:24.000Z,98805.45
2018-09-19T10:19:52.228Z,98804.72
2018-09-19T10:22:20.912Z,98801.59
2018-09-19T10:24:49.125Z,98806.20
2018-09-19T10:27:17.500Z,98803.91
2018-09-19T10:29:46.128Z,98801.91
2018-09-19T10:32:14.609Z,98798.54
2018-09-19T10:34:42.885Z,98801.80
2018-09-19T10:37:11.614Z,98797.90
2018-09-19T10:39:39.864Z,98796.37
2018-09-19T10:42:08.518Z,98794.10
2018-09-19T10:44:36.720Z,98791.47
2018-09-19T10:47:05.898Z,98797.56
2018-09-19T10:52:07.336Z,98797.70
2018-09-19T10:54:35.655Z,98793.07
2018-09-19T10:57:06.078Z,98793.30
2018-09-19T10:59:34.557Z,98793.81
2018-09-19T11:02:04.367Z,98791.00
2018-09-19T11:04:33.283Z,98785.77
2018-09-19T11:07:02.810Z,98782.41
2018-09-19T11:09:32.175Z,98788.67
2018-09-19T11:12:01.283Z,98782.88
2018-09-19T11:14:30.092Z,98783.66
2018-09-19T11:16:58.486Z,98780.40
2018-09-19T11:19:27.102Z,98777.83
2018-09-19T11:21:55.343Z,98772.78
2018-09-19T11:24:25.078Z,98769.23
2018-09-19T11:26:55.269Z,98769.88
2018-09-19T11:29:25.792Z,98762.59
2018-09-19T11:31:56.002Z,98752.16
2018-09-19T11:34:24.412Z,98755.58
2018-09-19T11:36:52.761Z,98755.34
2018-09-19T11:39:21.050Z,98751.61
2018-09-19T11:41:49.393Z,98746.55
2018-09-19T11:44:18.511Z,98743.81
2018-09-19T11:46:46.687Z,98750.23
2018-09-19T11:49:15.197Z,98747.26
2018-09-19T11:51:43.843Z,98741.97
2018-09-19T11:54:12.739Z,98743.69
2018-09-19T11:56:41.366Z,98742.50
2018-09-19T11:59:09.644Z,98743.07
2018-09-19T12:01:43.782Z,98743.73
2018-09-19T12:04:12.106Z,98739.22
2018-09-19T12:06:40.480Z,98739.12
2018-09-19T12:09:11.310Z,98738.95
2018-09-19T12:11:39.658Z,98739.96
2018-09-19T12:14:08.037Z,98735.68
2018-09-19T12:16:37.544Z,98727.61
2018-09-19T12:19:07.091Z,98726.25
2018-09-19T12:21:35.700Z,98715.61
2018-09-19T12:24:04.902Z,98720.72
2018-09-19T12:26:33.421Z,98718.38
2018-09-19T12:29:02.487Z,98717.39
2018-09-19T12:31:31.115Z,98720.29
2018-09-19T12:33:59.644Z,98715.07
2018-09-19T12:36:28.574Z,98714.30
2018-09-19T12:38:56.790Z,98710.56
2018-09-19T12:41:25.027Z,98704.08
2018-09-19T12:43:53.525Z,98701.03
2018-09-19T12:46:22.452Z,98695.37
2018-09-19T12:48:57.866Z,98698.44
2018-09-19T12:51:26.176Z,98693.52
2018-09-19T12:53:54.436Z,98690.98
2018-09-19T12:56:22.808Z,98689.25
2018-09-19T12:58:51.096Z,98688.47
2018-09-19T13:01:20.184Z,98681.66
2018-09-19T13:03:48.472Z,98682.87
2018-09-19T13:06:16.695Z,98677.23
2018-09-19T13:08:44.942Z,98684.27
2018-09-19T13:11:13.772Z,98683.00
2018-09-19T13:13:42.808Z,98681.62
2018-09-19T13:16:11.128Z,98687.41
2018-09-19T13:18:39.436Z,98689.95
2018-09-19T13:21:08.146Z,98678.23
2018-09-19T13:23:36.398Z,98681.06
2018-09-19T13:26:04.816Z,98673.89
2018-09-19T13:28:33.310Z,98676.59
2018-09-19T13:31:01.880Z,98675.96
2018-09-19T13:33:30.204Z,98670.94
2018-09-19T13:35:58.726Z,98668.66
2018-09-19T13:38:27.046Z,98674.39
2018-09-19T13:40:55.375Z,98668.13
2018-09-19T13:43:23.926Z,98672.17
2018-09-19T13:45:52.418Z,98666.77
2018-09-19T13:48:20.941Z,98670.11
2018-09-19T13:51:01.425Z,98671.11
2018-09-19T13:53:29.730Z,98658.89
2018-09-19T13:55:58.006Z,98663.00
2018-09-19T13:58:26.608Z,98653.73
2018-09-19T14:00:55.067Z,98664.73
2018-09-19T14:03:23.596Z,98662.85
2018-09-19T14:05:51.865Z,98660.06
2018-09-19T14:08:21.737Z,98659.20
2018-09-19T14:10:51.439Z,98659.02
2018-09-19T14:13:19.980Z,98663.17
2018-09-19T14:15:48.523Z,98663.78
2018-09-19T14:18:16.770Z,98669.77
2018-09-19T14:20:45.528Z,98658.23
2018-09-19T14:23:13.755Z,98660.04
2018-09-19T14:25:42.055Z,98653.20
2018-09-19T14:28:10.568Z,98654.45
2018-09-19T14:30:38.991Z,98652.36
2018-09-19T14:33:07.502Z,98651.33
2018-09-19T14:35:35.759Z,98645.92
2018-09-19T14:38:05.144Z,98644.99
2018-09-19T14:40:33.311Z,98642.66
2018-09-19T14:43:01.828Z,98643.27
2018-09-19T14:45:30.297Z,98638.41
2018-09-19T14:47:58.569Z,98634.53
2018-09-19T14:50:26.870Z,98631.95
2018-09-19T14:52:55.376Z,98631.53
2018-09-19T14:55:23.624Z,98631.30
2018-09-19T14:57:52.151Z,98629.27
2018-09-19T15:00:21.334Z,98627.55
2018-09-19T15:02:49.830Z,98628.17
2018-09-19T15:05:18.130Z,98627.41
2018-09-19T15:07:47.000Z,98619.19
2018-09-19T15:10:16.206Z,98619.18
2018-09-19T15:12:44.522Z,98621.23
2018-09-19T15:15:13.029Z,98615.34
2018-09-19T15:17:41.530Z,98612.91
2018-09-19T15:20:09.740Z,98610.84
2018-09-19T15:22:38.324Z,98611.95
2018-09-19T15:25:06.933Z,98608.61
2018-09-19T15:27:35.215Z,98606.82
2018-09-19T15:30:04.118Z,98615.85
2018-09-19T15:32:32.604Z,98616.46
2018-09-19T15:35:00.868Z,98607.42
2018-09-19T15:37:29.561Z,98613.28
2018-09-19T15:39:58.208Z,98611.73
2018-09-19T15:42:26.477Z,98608.55
2018-09-19T15:44:54.853Z,98609.23
2018-09-19T15:47:23.730Z,98607.97
2018-09-19T15:49:51.995Z,98609.16
2018-09-19T15:52:20.545Z,98610.05
2018-09-19T15:54:49.080Z,98617.36
2018-09-19T15:57:17.691Z,98609.33
2018-09-19T15:59:45.836Z,98610.73
2018-09-19T16:02:14.268Z,98619.91
2018-09-19T16:04:42.978Z,98616.20
2018-09-19T16:07:11.993Z,98614.27
2018-09-19T16:09:40.260Z,98615.50
2018-09-19T16:12:08.446Z,98617.26
2018-09-19T16:14:36.964Z,98620.55
2018-09-19T16:17:05.561Z,98619.69
2018-09-19T16:19:33.813Z,98617.78
2018-09-19T16:22:02.328Z,98620.41
2018-09-19T16:24:30.570Z,98626.36
2018-09-19T16:26:59.356Z,98629.27
2018-09-19T16:29:27.900Z,98627.02
2018-09-19T16:31:56.480Z,98627.41
2018-09-19T16:34:24.983Z,98625.20
2018-09-19T16:36:53.263Z,98627.59
2018-09-19T16:39:22.488Z,98625.83
2018-09-19T16:41:50.705Z,98630.71
2018-09-19T16:44:19.375Z,98633.23
2018-09-19T16:46:48.043Z,98637.06
2018-09-19T16:49:16.560Z,98633.64
2018-09-19T16:51:44.918Z,98640.75
2018-09-19T16:54:13.571Z,98641.94
2018-09-19T16:56:42.504Z,98638.73
2018-09-19T16:59:10.754Z,98633.69
2018-09-19T17:01:39.815Z,98633.98
2018-09-19T17:04:08.153Z,98644.54
2018-09-19T17:06:37.057Z,98642.00
2018-09-19T17:09:07.482Z,98645.61
2018-09-19T17:11:35.897Z,98640.69
2018-09-19T17:14:04.978Z,98637.25
2018-09-19T17:16:33.741Z,98645.81
2018-09-19T17:19:03.002Z,98640.79
2018-09-19T17:21:31.314Z,98641.13
2018-09-19T17:24:00.013Z,98644.61
2018-09-19T17:26:28.195Z,98645.34
2018-09-19T17:28:57.047Z,98645.92
2018-09-19T17:31:25.510Z,98653.41
2018-09-19T17:33:53.850Z,98655.97
2018-09-19T17:36:22.047Z,98656.12
2018-09-19T17:38:50.348Z,98660.86
2018-09-19T17:41:18.859Z,98659.56
2018-09-19T17:43:47.685Z,98662.61
2018-09-19T17:46:16.170Z,98658.35
2018-09-19T17:48:44.420Z,98656.44
2018-09-19T17:51:12.650Z,98659.27
2018-09-19T17:53:40.927Z,98661.41
2018-09-19T17:56:09.250Z,98665.14
2018-09-19T17:58:37.569Z,98664.91
2018-09-19T18:01:05.773Z,98669.93
2018-09-19T18:03:34.109Z,98673.23
2018-09-19T18:06:02.768Z,98675.42
2018-09-19T18:08:31.066Z,98679.32
2018-09-19T18:10:59.616Z,98675.03
2018-09-19T18:13:29.975Z,98677.59
2018-09-19T18:15:59.313Z,98682.02
2018-09-19T18:18:29.589Z,98687.16
2018-09-19T18:20:59.020Z,98686.95
2018-09-19T18:23:28.240Z,98686.66
2018-09-19T18:25:57.553Z,98680.97
2018-09-19T18:28:26.188Z,98687.87
2018-09-19T18:30:55.357Z,98689.55
2018-09-19T18:33:24.598Z,98686.93
2018-09-19T18:35:54.233Z,98687.63
2018-09-19T18:38:23.620Z,98693.23
2018-09-19T18:40:53.545Z,98696.30
2018-09-19T18:43:22.907Z,98692.88
2018-09-19T18:45:52.358Z,98700.73
2018-09-19T18:48:21.875Z,98701.78
2018-09-19T18:50:50.813Z,98706.17
2018-09-19T18:53:20.134Z,98706.33
2018-09-19T18:55:49.772Z,98702.06
2018-09-19T18:58:19.742Z,98706.38
2018-09-19T19:00:49.084Z,98705.87
2018-09-19T19:03:18.408Z,98708.64
2018-09-19T19:05:46.716Z,98708.91
2018-09-19T19:08:16.424Z,98711.64
2018-09-19T19:10:45.513Z,98722.88
2018-09-19T19:13:14.285Z,98718.61
2018-09-19T19:15:43.652Z,98719.50
2018-09-19T19:18:12.601Z,98715.70
2018-09-19T19:20:42.333Z,98716.52
2018-09-19T19:23:10.660Z,98721.81
2018-09-19T19:25:39.530Z,98718.91
2018-09-19T19:28:07.779Z,98714.58
2018-09-19T19:30:37.019Z,98716.02
2018-09-19T19:33:05.450Z,98725.80
2018-09-19T19:35:33.788Z,98723.98
2018-09-19T19:38:02.489Z,98722.17
2018-09-19T19:40:30.725Z,98727.78
2018-09-19T19:42:59.050Z,98728.20
2018-09-19T19:45:27.410Z,98721.51
2018-09-19T19:47:55.684Z,98728.02
2018-09-19T19:50:23.968Z,98727.45
2018-09-19T19:52:52.564Z,98726.82
2018-09-19T19:55:21.085Z,98728.23
2018-09-19T19:57:49.740Z,98725.97
2018-09-19T20:00:18.645Z,98728.70
2018-09-19T20:02:47.661Z,98731.16
2018-09-19T20:05:16.631Z,98735.87
2018-09-19T20:07:45.253Z,98733.64
2018-09-19T20:10:13.788Z,98725.28
2018-09-19T20:12:42.012Z,98729.20
2018-09-19T20:15:10.214Z,98731.38
2018-09-19T20:17:38.663Z,98732.06
2018-09-19T20:20:07.192Z,98732.06
2018-09-19T20:22:35.441Z,98727.38
2018-09-19T20:25:05.886Z,98724.54
2018-09-19T20:27:41.073Z,98720.98
2018-09-19T20:30:09.561Z,98726.94
2018-09-19T20:32:37.773Z,98728.27
2018-09-19T20:35:06.055Z,98721.77
2018-09-19T20:37:34.843Z,98722.61
2018-09-19T20:40:03.649Z,98725.44
2018-09-19T20:42:31.905Z,98722.83
2018-09-19T20:45:00.445Z,98724.19
2018-09-19T20:47:28.918Z,98728.76
2018-09-19T20:49:57.503Z,98728.77
2018-09-19T20:52:25.701Z,98732.17
2018-09-19T20:54:53.913Z,98728.09
2018-09-19T20:57:22.535Z,98733.34
2018-09-19T20:59:51.043Z,98729.44
2018-09-19T21:02:19.317Z,98738.61
2018-09-19T21:04:47.680Z,98731.38
2018-09-19T21:07:15.948Z,98732.36
2018-09-19T21:09:44.321Z,98734.34
2018-09-19T21:12:12.693Z,98743.02
2018-09-19T21:14:41.096Z,98739.59
2018-09-19T21:17:10.184Z,98741.72
2018-09-19T21:19:38.816Z,98747.14
2018-09-19T21:22:08.059Z,98750.42
2018-09-19T21:24:36.949Z,98753.88
2018-09-19T21:27:05.966Z,98755.35
2018-09-19T21:29:34.340Z,98753.05
2018-09-19T21:32:03.904Z,98758.95
2018-09-19T21:34:32.169Z,98760.86
2018-09-19T21:37:00.860Z,98765.78
2018-09-19T21:39:29.134Z,98768.88
2018-09-19T21:41:57.463Z,98766.74
2018-09-19T21:44:25.663Z,98767.06
2018-09-19T21:46:54.621Z,98768.84
2018-09-19T21:49:23.381Z,98763.63
2018-09-19T21:51:51.633Z,98765.08
2018-09-19T21:54:20.608Z,98762.78
2018-09-19T21:56:50.505Z,98760.84
2018-09-19T21:59:18.949Z,98759.53
2018-09-19T22:01:51.699Z,98763.77
2018-09-19T22:04:20.108Z,98761.13
2018-09-19T22:06:52.229Z,98765.85
2018-09-19T22:09:20.648Z,98764.52
2018-09-19T22:11:49.228Z,98762.73
2018-09-19T22:14:17.576Z,98763.59
2018-09-19T22:16:45.938Z,98759.30
2018-09-19T22:19:15.205Z,98756.02
2018-09-19T22:21:43.463Z,98759.31
2018-09-19T22:24:12.251Z,98755.17
2018-09-19T22:26:40.762Z,98756.16
2018-09-19T22:29:09.340Z,98760.23
2018-09-19T22:31:37.625Z,98758.63
2018-09-19T22:34:06.233Z,98760.73
2018-09-19T22:36:35.021Z,98755.17
2018-09-19T22:39:04.095Z,98757.92
2018-09-19T22:41:32.556Z,98761.97
2018-09-19T22:44:00.729Z,98755.71
2018-09-19T22:46:29.512Z,98757.50
2018-09-19T22:48:58.318Z,98755.20
2018-09-19T22:51:26.772Z,98756.65
2018-09-19T22:53:55.317Z,98758.41
2018-09-19T22:56:23.571Z,98754.33
2018-09-19T22:58:52.108Z,98753.68
2018-09-19T23:01:20.462Z,98749.61
2018-09-19T23:03:49.093Z,98751.23
2018-09-19T23:06:17.545Z,98748.77
2018-09-19T23:08:46.378Z,98754.98
2018-09-19T23:11:14.662Z,98749.08
2018-09-19T23:13:42.957Z,98754.47
2018-09-19T23:19:20.746Z,98754.33
2018-09-19T23:21:48.960Z,98754.45
2018-09-19T23:24:17.564Z,98756.01
2018-09-19T23:26:45.782Z,98765.15
2018-09-19T23:29:14.455Z,98759.08
2018-09-19T23:31:42.705Z,98756.91
2018-09-19T23:34:11.532Z,98758.02
2018-09-19T23:36:39.925Z,98753.72
2018-09-19T23:39:09.595Z,98751.42
2018-09-19T23:41:37.812Z,98754.68
2018-09-19T23:44:06.241Z,98756.60
2018-09-19T23:46:34.504Z,98748.26
2018-09-19T23:49:02.957Z,98750.52
2018-09-19T23:51:31.255Z,98748.56
2018-09-19T23:53:59.497Z,98753.81
2018-09-19T23:56:28.089Z,98748.43
2018-09-19T23:58:56.337Z,98753.81
